sensor_id;sensor_type;location;lat;lon;timestamp;temperature;humidity
9095;DHT22;4583;49.796;9.902;2022-09-09T00:15:57;18.30;81.90
9095;DHT22;4583;49.796;9.902;2022-09-09T00:26:31;18.20;82.80
9095;DHT22;4583;49.796;9.902;2022-09-09T00:36:32;18.20;83.90
9095;DHT22;4583;49.796;9.902;2022-09-09T01:07:18;18.20;89.40
9095;DHT22;4583;49.796;9.902;2022-09-09T01:17:24;18.10;90.40
9095;DHT22;4583;49.796;9.902;2022-09-09T01:27:27;18.10;91.00
9095;DHT22;4583;49.796;9.902;2022-09-09T01:37:29;18.00;91.60
9095;DHT22;4583;49.796;9.902;2022-09-09T01:47:31;17.90;92.40
9095;DHT22;4583;49.796;9.902;2022-09-09T02:08:08;18.00;93.90
9095;DHT22;4583;49.796;9.902;2022-09-09T02:18:12;18.00;94.20
9095;DHT22;4583;49.796;9.902;2022-09-09T02:28:17;18.00;94.50
9095;DHT22;4583;49.796;9.902;2022-09-09T02:38:22;18.00;94.80
9095;DHT22;4583;49.796;9.902;2022-09-09T02:59:05;18.00;95.40
9095;DHT22;4583;49.796;9.902;2022-09-09T03:09:07;18.00;95.50
9095;DHT22;4583;49.796;9.902;2022-09-09T03:19:11;17.90;95.70
9095;DHT22;4583;49.796;9.902;2022-09-09T03:29:13;17.80;96.20
9095;DHT22;4583;49.796;9.902;2022-09-09T03:39:16;17.80;96.30
9095;DHT22;4583;49.796;9.902;2022-09-09T03:49:17;17.90;96.40
9095;DHT22;4583;49.796;9.902;2022-09-09T03:59:19;17.90;96.40
9095;DHT22;4583;49.796;9.902;2022-09-09T04:09:22;17.80;96.60
9095;DHT22;4583;49.796;9.902;2022-09-09T04:19:25;17.80;96.70
9095;DHT22;4583;49.796;9.902;2022-09-09T04:29:27;17.60;96.80
9095;DHT22;4583;49.796;9.902;2022-09-09T04:39:28;17.60;97.10
9095;DHT22;4583;49.796;9.902;2022-09-09T04:49:30;17.60;97.20
9095;DHT22;4583;49.796;9.902;2022-09-09T04:59:32;17.60;97.30
9095;DHT22;4583;49.796;9.902;2022-09-09T05:09:34;17.60;97.20
9095;DHT22;4583;49.796;9.902;2022-09-09T05:19:36;17.70;97.00
9095;DHT22;4583;49.796;9.902;2022-09-09T05:29:38;17.70;96.50
9095;DHT22;4583;49.796;9.902;2022-09-09T05:39:40;17.80;96.20
9095;DHT22;4583;49.796;9.902;2022-09-09T05:49:42;17.90;95.70
9095;DHT22;4583;49.796;9.902;2022-09-09T05:59:43;18.00;95.30
9095;DHT22;4583;49.796;9.902;2022-09-09T06:09:45;18.10;94.80
9095;DHT22;4583;49.796;9.902;2022-09-09T06:19:47;18.20;94.30
9095;DHT22;4583;49.796;9.902;2022-09-09T06:29:48;18.20;94.00
9095;DHT22;4583;49.796;9.902;2022-09-09T06:39:50;18.20;93.80
9095;DHT22;4583;49.796;9.902;2022-09-09T06:49:52;18.20;93.70
9095;DHT22;4583;49.796;9.902;2022-09-09T06:59:54;18.30;93.80
9095;DHT22;4583;49.796;9.902;2022-09-09T07:09:55;18.30;93.30
9095;DHT22;4583;49.796;9.902;2022-09-09T07:19:57;18.50;93.10
9095;DHT22;4583;49.796;9.902;2022-09-09T07:29:59;18.70;92.90
9095;DHT22;4583;49.796;9.902;2022-09-09T07:40:00;18.90;92.70
9095;DHT22;4583;49.796;9.902;2022-09-09T07:50:05;19.10;92.40
9095;DHT22;4583;49.796;9.902;2022-09-09T08:00:08;19.20;91.90
9095;DHT22;4583;49.796;9.902;2022-09-09T08:10:11;19.40;91.60
9095;DHT22;4583;49.796;9.902;2022-09-09T08:20:15;19.70;91.00
9095;DHT22;4583;49.796;9.902;2022-09-09T08:30:17;19.90;90.70
9095;DHT22;4583;49.796;9.902;2022-09-09T08:40:25;20.10;90.30
9095;DHT22;4583;49.796;9.902;2022-09-09T08:50:36;20.10;89.70
9095;DHT22;4583;49.796;9.902;2022-09-09T09:01:02;20.40;89.30
9095;DHT22;4583;49.796;9.902;2022-09-09T09:11:11;20.60;88.50
9095;DHT22;4583;49.796;9.902;2022-09-09T09:21:17;20.60;87.30
9095;DHT22;4583;49.796;9.902;2022-09-09T09:31:22;20.70;86.60
9095;DHT22;4583;49.796;9.902;2022-09-09T09:41:38;21.00;86.10
9095;DHT22;4583;49.796;9.902;2022-09-09T09:51:41;21.10;84.30
9095;DHT22;4583;49.796;9.902;2022-09-09T10:01:43;21.30;83.60
9095;DHT22;4583;49.796;9.902;2022-09-09T10:42:35;22.00;74.20
9095;DHT22;4583;49.796;9.902;2022-09-09T10:53:14;21.10;77.60
9095;DHT22;4583;49.796;9.902;2022-09-09T11:03:26;19.40;83.30
9095;DHT22;4583;49.796;9.902;2022-09-09T11:23:57;18.70;89.60
9095;DHT22;4583;49.796;9.902;2022-09-09T11:34:16;18.80;91.20
9095;DHT22;4583;49.796;9.902;2022-09-09T11:44:28;19.10;92.20
9095;DHT22;4583;49.796;9.902;2022-09-09T11:54:33;20.00;93.50
9095;DHT22;4583;49.796;9.902;2022-09-09T12:04:48;20.60;93.40
9095;DHT22;4583;49.796;9.902;2022-09-09T12:35:58;21.10;91.80
9095;DHT22;4583;49.796;9.902;2022-09-09T12:46:07;21.10;90.60
9095;DHT22;4583;49.796;9.902;2022-09-09T12:56:22;21.20;89.30
9095;DHT22;4583;49.796;9.902;2022-09-09T13:06:33;21.70;88.80
9095;DHT22;4583;49.796;9.902;2022-09-09T13:16:36;22.10;85.30
9095;DHT22;4583;49.796;9.902;2022-09-09T13:26:43;22.30;81.80
9095;DHT22;4583;49.796;9.902;2022-09-09T13:36:48;22.50;78.40
9095;DHT22;4583;49.796;9.902;2022-09-09T13:47:32;22.60;72.40
9095;DHT22;4583;49.796;9.902;2022-09-09T13:57:34;22.90;68.30
9095;DHT22;4583;49.796;9.902;2022-09-09T14:07:38;22.80;65.90
9095;DHT22;4583;49.796;9.902;2022-09-09T14:17:41;22.60;65.30
9095;DHT22;4583;49.796;9.902;2022-09-09T14:27:43;22.50;64.60
9095;DHT22;4583;49.796;9.902;2022-09-09T14:37:46;22.50;64.90
9095;DHT22;4583;49.796;9.902;2022-09-09T14:47:49;22.30;64.70
9095;DHT22;4583;49.796;9.902;2022-09-09T14:57:51;22.10;64.50
9095;DHT22;4583;49.796;9.902;2022-09-09T15:07:52;20.50;75.70
9095;DHT22;4583;49.796;9.902;2022-09-09T15:17:54;20.00;81.40
9095;DHT22;4583;49.796;9.902;2022-09-09T15:27:56;19.70;86.40
9095;DHT22;4583;49.796;9.902;2022-09-09T15:38:02;19.70;90.30
9095;DHT22;4583;49.796;9.902;2022-09-09T15:48:04;19.80;91.70
9095;DHT22;4583;49.796;9.902;2022-09-09T15:58:06;20.00;92.80
9095;DHT22;4583;49.796;9.902;2022-09-09T16:08:09;19.90;93.40
9095;DHT22;4583;49.796;9.902;2022-09-09T16:18:10;20.00;93.50
9095;DHT22;4583;49.796;9.902;2022-09-09T16:28:12;19.90;93.20
9095;DHT22;4583;49.796;9.902;2022-09-09T16:38:14;19.90;93.00
9095;DHT22;4583;49.796;9.902;2022-09-09T16:48:16;19.90;92.20
9095;DHT22;4583;49.796;9.902;2022-09-09T16:58:17;19.80;91.40
9095;DHT22;4583;49.796;9.902;2022-09-09T17:08:19;19.70;90.40
9095;DHT22;4583;49.796;9.902;2022-09-09T17:18:21;19.50;89.80
9095;DHT22;4583;49.796;9.902;2022-09-09T17:28:24;19.40;89.80
9095;DHT22;4583;49.796;9.902;2022-09-09T17:38:29;19.40;90.10
9095;DHT22;4583;49.796;9.902;2022-09-09T17:48:30;19.40;90.30
9095;DHT22;4583;49.796;9.902;2022-09-09T17:58:33;19.40;90.60
9095;DHT22;4583;49.796;9.902;2022-09-09T18:08:35;19.40;90.80
9095;DHT22;4583;49.796;9.902;2022-09-09T18:18:37;19.30;90.70
9095;DHT22;4583;49.796;9.902;2022-09-09T18:28:40;19.20;91.50
9095;DHT22;4583;49.796;9.902;2022-09-09T18:38:42;19.10;92.50
9095;DHT22;4583;49.796;9.902;2022-09-09T18:48:45;18.90;93.20
9095;DHT22;4583;49.796;9.902;2022-09-09T18:58:51;18.80;93.70
9095;DHT22;4583;49.796;9.902;2022-09-09T19:08:53;18.70;94.00
9095;DHT22;4583;49.796;9.902;2022-09-09T19:19:07;18.50;93.70
9095;DHT22;4583;49.796;9.902;2022-09-09T19:29:15;18.50;93.50
9095;DHT22;4583;49.796;9.902;2022-09-09T19:39:18;18.40;93.70
9095;DHT22;4583;49.796;9.902;2022-09-09T19:49:20;18.20;94.10
9095;DHT22;4583;49.796;9.902;2022-09-09T19:59:21;18.00;94.50
9095;DHT22;4583;49.796;9.902;2022-09-09T20:09:23;17.90;94.90
9095;DHT22;4583;49.796;9.902;2022-09-09T20:19:27;17.80;94.80
9095;DHT22;4583;49.796;9.902;2022-09-09T20:29:29;17.90;94.40
9095;DHT22;4583;49.796;9.902;2022-09-09T20:39:30;18.00;93.90
9095;DHT22;4583;49.796;9.902;2022-09-09T20:49:32;18.10;93.50
9095;DHT22;4583;49.796;9.902;2022-09-09T20:59:36;18.10;93.00
9095;DHT22;4583;49.796;9.902;2022-09-09T21:09:38;18.10;92.80
9095;DHT22;4583;49.796;9.902;2022-09-09T21:19:41;18.10;92.60
9095;DHT22;4583;49.796;9.902;2022-09-09T21:29:43;18.10;92.60
9095;DHT22;4583;49.796;9.902;2022-09-09T21:39:44;18.10;92.50
9095;DHT22;4583;49.796;9.902;2022-09-09T21:49:48;18.10;92.20
9095;DHT22;4583;49.796;9.902;2022-09-09T21:59:49;18.10;92.40
9095;DHT22;4583;49.796;9.902;2022-09-09T22:09:51;18.00;92.60
9095;DHT22;4583;49.796;9.902;2022-09-09T22:19:53;18.00;92.90
9095;DHT22;4583;49.796;9.902;2022-09-09T22:29:54;17.80;93.30
9095;DHT22;4583;49.796;9.902;2022-09-09T22:39:56;17.70;93.80
9095;DHT22;4583;49.796;9.902;2022-09-09T22:49:58;17.70;94.10
9095;DHT22;4583;49.796;9.902;2022-09-09T22:59:59;17.70;94.50
9095;DHT22;4583;49.796;9.902;2022-09-09T23:10:03;17.70;94.80
9095;DHT22;4583;49.796;9.902;2022-09-09T23:20:07;17.70;95.10
9095;DHT22;4583;49.796;9.902;2022-09-09T23:30:11;17.70;95.30
9095;DHT22;4583;49.796;9.902;2022-09-09T23:40:12;17.70;95.30
9095;DHT22;4583;49.796;9.902;2022-09-09T23:50:14;17.60;95.10
